sensor_id;sensor_type;location;lat;lon;timestamp;temperature;humidity
26613;DHT22;14248;57.652;11.908;2023-03-01T12:59:43;9.70;99.70
26613;DHT22;14248;57.652;11.908;2023-03-01T13:02:24;13.90;94.60
26613;DHT22;14248;57.652;11.908;2023-03-01T13:05:05;14.30;93.70
26613;DHT22;14248;57.652;11.908;2023-03-01T13:08:02;14.70;91.30
26613;DHT22;14248;57.652;11.908;2023-03-01T13:11:03;15.00;90.90
26613;DHT22;14248;57.652;11.908;2023-03-01T13:13:31;15.40;90.10
26613;DHT22;14248;57.652;11.908;2023-03-01T13:15:57;15.70;86.40
26613;DHT22;14248;57.652;11.908;2023-03-01T13:18:42;15.80;83.40
26613;DHT22;14248;57.652;11.908;2023-03-01T13:21:30;15.90;82.10
26613;DHT22;14248;57.652;11.908;2023-03-01T13:23:59;16.10;80.80
26613;DHT22;14248;57.652;11.908;2023-03-01T13:26:24;16.50;77.70
26613;DHT22;14248;57.652;11.908;2023-03-01T13:28:56;16.60;76.00
26613;DHT22;14248;57.652;11.908;2023-03-01T13:34:00;16.80;75.90
26613;DHT22;14248;57.652;11.908;2023-03-01T13:38:56;17.10;72.00
26613;DHT22;14248;57.652;11.908;2023-03-01T13:44:35;17.60;68.90
26613;DHT22;14248;57.652;11.908;2023-03-01T13:49:52;17.80;67.40
26613;DHT22;14248;57.652;11.908;2023-03-01T13:52:44;17.70;66.40
26613;DHT22;14248;57.652;11.908;2023-03-01T13:57:47;17.90;66.20
26613;DHT22;14248;57.652;11.908;2023-03-01T14:00:35;18.00;67.40
26613;DHT22;14248;57.652;11.908;2023-03-01T14:03:15;18.20;64.30
26613;DHT22;14248;57.652;11.908;2023-03-01T14:08:27;18.40;64.70
26613;DHT22;14248;57.652;11.908;2023-03-01T14:19:20;18.50;62.30
26613;DHT22;14248;57.652;11.908;2023-03-01T14:24:31;19.00;60.30
26613;DHT22;14248;57.652;11.908;2023-03-01T14:27:01;18.80;58.40
26613;DHT22;14248;57.652;11.908;2023-03-01T14:29:34;18.50;59.00
26613;DHT22;14248;57.652;11.908;2023-03-01T14:32:21;18.50;59.40
26613;DHT22;14248;57.652;11.908;2023-03-01T14:34:50;18.60;58.60
26613;DHT22;14248;57.652;11.908;2023-03-01T14:39:59;18.60;58.70
26613;DHT22;14248;57.652;11.908;2023-03-01T14:42:29;18.30;59.60
26613;DHT22;14248;57.652;11.908;2023-03-01T14:44:57;17.90;60.30
26613;DHT22;14248;57.652;11.908;2023-03-01T14:47:32;17.70;61.60
26613;DHT22;14248;57.652;11.908;2023-03-01T14:50:15;17.60;61.90
26613;DHT22;14248;57.652;11.908;2023-03-01T14:52:47;17.60;62.40
26613;DHT22;14248;57.652;11.908;2023-03-01T14:55:17;17.60;63.50
26613;DHT22;14248;57.652;11.908;2023-03-01T14:57:48;17.70;63.50
26613;DHT22;14248;57.652;11.908;2023-03-01T15:00:28;17.80;63.30
26613;DHT22;14248;57.652;11.908;2023-03-01T15:02:56;17.90;61.70
26613;DHT22;14248;57.652;11.908;2023-03-01T15:05:28;17.70;61.50
26613;DHT22;14248;57.652;11.908;2023-03-01T15:07:58;17.40;61.50
26613;DHT22;14248;57.652;11.908;2023-03-01T15:10:36;16.80;62.30
26613;DHT22;14248;57.652;11.908;2023-03-01T15:13:22;16.40;63.30
26613;DHT22;14248;57.652;11.908;2023-03-01T15:15:53;15.90;64.50
26613;DHT22;14248;57.652;11.908;2023-03-01T15:18:28;15.60;65.30
26613;DHT22;14248;57.652;11.908;2023-03-01T15:20:54;15.30;66.00
26613;DHT22;14248;57.652;11.908;2023-03-01T15:23:24;14.70;66.80
26613;DHT22;14248;57.652;11.908;2023-03-01T15:25:52;14.20;68.70
26613;DHT22;14248;57.652;11.908;2023-03-01T15:28:30;14.10;69.70
26613;DHT22;14248;57.652;11.908;2023-03-01T15:31:24;14.10;69.80
26613;DHT22;14248;57.652;11.908;2023-03-01T15:33:51;14.20;70.20
26613;DHT22;14248;57.652;11.908;2023-03-01T15:41:56;14.10;70.30
26613;DHT22;14248;57.652;11.908;2023-03-01T15:44:32;13.90;70.50
26613;DHT22;14248;57.652;11.908;2023-03-01T15:47:29;13.80;71.00
26613;DHT22;14248;57.652;11.908;2023-03-01T15:49:59;13.40;71.40
